Time;durP1;ratioP1;P1;durP2;ratioP2;P2;SDS_P1;SDS_P2;PMS_P1;PMS_P2;Temp;Humidity;BMP_temperature;BMP_pressure;BME280_temperature;BME280_humidity;BME280_pressure;Samples;Min_cycle;Max_cycle;Signal;HPM_P1;HPM_P2
2022/09/09 00:02:15;;;;;;;3.23;1.00;;;17.90;99.90;;;;;;5015183;28;20034;-79
2022/09/09 00:04:41;;;;;;;4.88;1.00;;;17.80;99.90;;;;;;5010262;28;20267;-80
2022/09/09 00:07:40;;;;;;;4.35;1.00;;;17.90;99.90;;;;;;5014630;28;20095;-82
2022/09/09 00:10:28;;;;;;;6.18;1.65;;;17.90;99.90;;;;;;5003833;28;20030;-78
2022/09/09 00:13:06;;;;;;;3.15;1.15;;;17.80;99.90;;;;;;5010951;28;20036;-81
2022/09/09 00:15:40;;;;;;;2.05;1.15;;;17.80;99.90;;;;;;5014314;28;20049;-82
2022/09/09 00:18:15;;;;;;;4.13;1.15;;;17.70;99.90;;;;;;5007054;28;20037;-80
2022/09/09 00:20:52;;;;;;;6.63;1.00;;;17.70;99.90;;;;;;5008273;28;20052;-81
2022/09/09 00:23:25;;;;;;;2.45;0.90;;;17.70;99.90;;;;;;5014095;28;20030;-81
2022/09/09 00:25:51;;;;;;;3.22;1.08;;;17.70;99.90;;;;;;4998823;28;20033;-80
2022/09/09 00:28:26;;;;;;;2.60;1.00;;;17.70;99.90;;;;;;5015411;28;20474;-79
2022/09/09 00:30:52;;;;;;;3.33;0.70;;;17.70;99.90;;;;;;5013969;28;20061;-80
2022/09/09 00:33:22;;;;;;;3.53;0.82;;;17.80;99.90;;;;;;5014933;28;20026;-80
2022/09/09 00:35:50;;;;;;;2.85;1.10;;;17.70;99.90;;;;;;5014485;28;20018;-80
2022/09/09 00:38:33;;;;;;;2.67;0.80;;;17.70;99.90;;;;;;5015052;28;20144;-78
2022/09/09 00:41:19;;;;;;;2.53;0.90;;;17.70;99.90;;;;;;5009290;28;20124;-78
2022/09/09 00:43:56;;;;;;;2.53;0.93;;;17.70;99.90;;;;;;4970662;28;20036;-81
2022/09/09 00:46:41;;;;;;;3.03;0.98;;;17.70;99.90;;;;;;5013487;28;20037;-81
2022/09/09 00:49:25;;;;;;;4.55;1.10;;;17.70;99.90;;;;;;5013701;28;20063;-80
2022/09/09 00:52:13;;;;;;;4.13;1.67;;;17.70;99.90;;;;;;5004154;28;20490;-80
2022/09/09 00:55:00;;;;;;;9.18;2.58;;;17.70;99.90;;;;;;4996204;28;20113;-79
2022/09/09 00:57:32;;;;;;;6.63;2.03;;;17.80;99.90;;;;;;5002711;28;20030;-81
2022/09/09 01:00:35;;;;;;;4.88;2.38;;;17.70;99.90;;;;;;5014755;28;20036;-81
2022/09/09 01:03:30;;;;;;;4.30;1.08;;;17.70;99.90;;;;;;5014668;28;20037;-80
2022/09/09 01:06:15;;;;;;;5.38;1.27;;;17.80;99.90;;;;;;5013722;28;20029;-79
2022/09/09 01:08:52;;;;;;;1.80;0.73;;;17.80;99.90;;;;;;5014053;28;20369;-79
2022/09/09 01:11:29;;;;;;;2.75;0.88;;;17.80;99.90;;;;;;5014293;28;20060;-80
2022/09/09 01:14:12;;;;;;;5.35;1.02;;;17.70;99.90;;;;;;5013782;28;20476;-80
2022/09/09 01:16:38;;;;;;;3.60;1.50;;;17.80;99.90;;;;;;5012494;28;20495;-82
2022/09/09 01:19:10;;;;;;;4.88;1.05;;;17.80;99.90;;;;;;5013563;28;20121;-81
2022/09/09 01:21:48;;;;;;;2.08;0.70;;;17.70;99.90;;;;;;5013061;28;20030;-82
2022/09/09 01:24:23;;;;;;;2.28;0.55;;;17.70;99.90;;;;;;5013660;28;20376;-81
2022/09/09 01:26:56;;;;;;;2.55;0.70;;;17.70;99.90;;;;;;5014062;28;20394;-80
2022/09/09 01:29:23;;;;;;;3.80;0.82;;;17.70;99.90;;;;;;5013331;28;20022;-80
2022/09/09 01:31:57;;;;;;;1.35;0.70;;;17.70;99.90;;;;;;5013016;28;20060;-81
2022/09/09 01:34:27;;;;;;;1.92;0.60;;;17.70;99.90;;;;;;5013137;28;20026;-80
2022/09/09 01:37:09;;;;;;;3.88;0.88;;;17.70;99.90;;;;;;5013157;28;20467;-80
2022/09/09 01:39:35;;;;;;;;;;;17.70;99.90;;;;;;5014297;28;20036;-80
2022/09/09 01:42:02;;;;;;;2.10;0.60;;;17.70;99.90;;;;;;5014036;28;19975;-81
2022/09/09 01:44:30;;;;;;;3.15;0.60;;;17.70;99.90;;;;;;5012745;28;20061;-80
2022/09/09 01:46:56;;;;;;;3.20;0.52;;;17.60;99.90;;;;;;5013785;28;20045;-80
2022/09/09 01:49:22;;;;;;;4.97;0.60;;;17.60;99.90;;;;;;5013124;28;20061;-80
2022/09/09 01:51:51;;;;;;;5.28;0.50;;;17.50;99.90;;;;;;5012358;28;20490;-80
2022/09/09 01:54:19;;;;;;;1.50;0.50;;;17.40;99.90;;;;;;5013093;28;20091;-80
2022/09/09 01:57:08;;;;;;;3.58;0.50;;;17.30;99.90;;;;;;5012378;28;20246;-80
2022/09/09 01:59:49;;;;;;;3.97;0.55;;;17.20;99.90;;;;;;5012442;28;20026;-81
2022/09/09 02:02:35;;;;;;;3.35;0.70;;;17.10;99.90;;;;;;5013000;28;20053;-82
2022/09/09 02:05:37;;;;;;;3.42;0.60;;;17.10;99.90;;;;;;5014074;28;20076;-81
2022/09/09 02:08:08;;;;;;;4.72;0.60;;;17.00;99.90;;;;;;5012866;28;20107;-81
2022/09/09 02:10:46;;;;;;;3.05;0.47;;;16.90;99.90;;;;;;5012494;28;20026;-81
2022/09/09 02:13:19;;;;;;;3.63;0.63;;;16.80;99.90;;;;;;5013597;28;20034;-81
2022/09/09 02:16:10;;;;;;;3.83;0.45;;;16.80;99.90;;;;;;5012222;28;20053;-81
2022/09/09 02:18:44;;;;;;;2.28;0.50;;;16.70;99.90;;;;;;5012363;28;20038;-81
2022/09/09 02:21:12;;;;;;;4.78;0.50;;;16.70;99.90;;;;;;5014190;28;20030;-81
2022/09/09 02:23:40;;;;;;;3.05;0.60;;;16.70;99.90;;;;;;5012357;28;20496;-80
2022/09/09 02:26:08;;;;;;;2.70;0.40;;;16.70;99.90;;;;;;5013858;28;20085;-81
2022/09/09 02:28:36;;;;;;;2.85;0.57;;;16.70;99.90;;;;;;5013077;28;20030;-81
2022/09/09 02:31:02;;;;;;;2.55;0.35;;;16.70;99.90;;;;;;5013182;28;20026;-81
2022/09/09 02:33:35;;;;;;;2.05;0.40;;;16.70;99.90;;;;;;5012342;28;20029;-82
2022/09/09 02:36:03;;;;;;;1.15;0.55;;;16.70;99.90;;;;;;5012985;28;20422;-81
2022/09/09 02:38:33;;;;;;;3.55;0.45;;;16.80;99.90;;;;;;5013304;28;20087;-82
2022/09/09 02:40:58;;;;;;;2.97;0.32;;;16.70;99.90;;;;;;5013095;28;20116;-79
2022/09/09 02:43:24;;;;;;;1.33;0.30;;;16.80;99.90;;;;;;5016098;28;20061;-79
2022/09/09 02:46:13;;;;;;;0.50;0.40;;;16.80;99.90;;;;;;5015873;28;20038;-79
2022/09/09 02:49:08;;;;;;;1.58;0.40;;;16.80;99.90;;;;;;5015973;28;20124;-79
2022/09/09 02:51:55;;;;;;;1.27;0.30;;;16.80;99.90;;;;;;5015951;28;20494;-79
2022/09/09 02:54:30;;;;;;;1.42;0.40;;;16.70;99.90;;;;;;5017118;28;20084;-78
2022/09/09 02:57:10;;;;;;;2.83;0.50;;;16.70;99.90;;;;;;5017418;28;20065;-79
2022/09/09 02:59:36;;;;;;;4.35;0.50;;;16.70;99.90;;;;;;5016746;28;20038;-80
2022/09/09 03:02:03;;;;;;;0.85;0.50;;;16.70;99.90;;;;;;5017376;28;20026;-80
2022/09/09 03:04:29;;;;;;;3.20;0.60;;;16.70;99.90;;;;;;5015734;28;20026;-81
2022/09/09 03:06:56;;;;;;;1.33;0.50;;;16.70;99.90;;;;;;5015800;28;20038;-81
2022/09/09 03:09:21;;;;;;;1.38;0.50;;;16.80;99.90;;;;;;5015848;28;20407;-81
2022/09/09 03:11:47;;;;;;;1.35;0.28;;;16.80;99.90;;;;;;5015916;28;20053;-81
2022/09/09 03:14:13;;;;;;;1.85;0.50;;;16.80;99.90;;;;;;5015626;28;20022;-81
2022/09/09 03:16:38;;;;;;;2.78;0.50;;;16.80;99.90;;;;;;5014955;28;20057;-81
2022/09/09 03:19:04;;;;;;;3.30;0.60;;;16.80;99.90;;;;;;5015758;28;20032;-81
2022/09/09 03:21:29;;;;;;;1.58;0.50;;;16.80;99.90;;;;;;5016021;28;20030;-81
2022/09/09 03:23:55;;;;;;;1.38;0.30;;;16.80;99.90;;;;;;5015563;28;20491;-82
2022/09/09 03:26:21;;;;;;;3.65;0.40;;;16.80;99.90;;;;;;5015960;28;20030;-82
2022/09/09 03:28:46;;;;;;;1.67;0.40;;;16.80;99.90;;;;;;5014710;28;20045;-81
2022/09/09 03:31:12;;;;;;;2.58;0.60;;;16.80;99.90;;;;;;5015562;28;20517;-81
2022/09/09 03:33:38;;;;;;;3.15;0.40;;;16.80;99.90;;;;;;5014890;28;20442;-81
2022/09/09 03:36:05;;;;;;;2.85;0.40;;;16.80;99.90;;;;;;5016637;28;20024;-81
2022/09/09 03:38:31;;;;;;;0.85;0.40;;;16.70;99.90;;;;;;5015442;28;20088;-82
2022/09/09 03:40:57;;;;;;;2.85;0.50;;;16.70;99.90;;;;;;5015492;28;20117;-80
2022/09/09 03:43:24;;;;;;;2.88;0.40;;;16.70;99.90;;;;;;5015461;28;20061;-82
2022/09/09 03:45:49;;;;;;;2.50;0.50;;;16.70;99.90;;;;;;5015193;28;20030;-82
2022/09/09 03:48:19;;;;;;;1.33;0.30;;;16.70;99.90;;;;;;5015535;28;20048;-82
2022/09/09 03:50:52;;;;;;;1.95;0.40;;;16.70;99.90;;;;;;5015189;28;20113;-81
2022/09/09 03:53:20;;;;;;;1.45;0.47;;;16.70;99.90;;;;;;5014289;28;20018;-81
2022/09/09 03:55:54;;;;;;;3.10;0.47;;;16.60;99.90;;;;;;5016444;28;20029;-81
2022/09/09 03:58:21;;;;;;;1.63;0.30;;;16.60;99.90;;;;;;5016089;28;20076;-79
2022/09/09 04:00:58;;;;;;;3.05;0.63;;;16.70;99.90;;;;;;5014585;28;20038;-80
2022/09/09 04:03:25;;;;;;;0.93;0.47;;;16.70;99.90;;;;;;5014972;28;20030;-80
2022/09/09 04:05:52;;;;;;;0.95;0.50;;;16.70;99.90;;;;;;5014175;28;20415;-79
2022/09/09 04:08:19;;;;;;;1.98;0.50;;;16.70;99.90;;;;;;5014936;28;20041;-80
2022/09/09 04:10:46;;;;;;;2.08;0.50;;;16.70;99.90;;;;;;5014664;28;20490;-80
2022/09/09 04:13:14;;;;;;;2.45;0.60;;;16.70;99.90;;;;;;5014832;28;20112;-80
2022/09/09 04:15:39;;;;;;;1.80;0.60;;;16.70;99.90;;;;;;5013769;28;20050;-80
2022/09/09 04:18:06;;;;;;;1.55;0.40;;;16.70;99.90;;;;;;5014354;28;20037;-81
2022/09/09 04:20:32;;;;;;;1.58;0.50;;;16.60;99.90;;;;;;5014425;28;20026;-81
2022/09/09 04:22:58;;;;;;;1.75;0.45;;;16.70;99.90;;;;;;5014637;28;20076;-81
2022/09/09 04:25:23;;;;;;;0.80;0.40;;;16.70;99.90;;;;;;5014384;28;20364;-81
2022/09/09 04:27:57;;;;;;;2.97;0.40;;;16.60;99.90;;;;;;5014248;28;20048;-80
2022/09/09 04:30:24;;;;;;;2.17;0.57;;;16.60;99.90;;;;;;5015604;28;20418;-81
2022/09/09 04:32:50;;;;;;;1.63;0.52;;;16.60;99.90;;;;;;5015464;28;20477;-80
2022/09/09 04:35:16;;;;;;;1.10;0.35;;;16.60;99.90;;;;;;5014749;28;20173;-81
2022/09/09 04:37:41;;;;;;;1.95;0.50;;;16.60;99.90;;;;;;5014484;28;20036;-81
2022/09/09 04:40:09;;;;;;;3.15;0.40;;;16.60;99.90;;;;;;5015258;28;20061;-81
2022/09/09 04:42:39;;;;;;;3.15;0.40;;;16.70;99.90;;;;;;5014908;28;20105;-81
2022/09/09 04:45:06;;;;;;;1.75;0.40;;;16.70;99.90;;;;;;5014126;28;20033;-81
2022/09/09 04:47:32;;;;;;;2.03;0.93;;;16.70;99.90;;;;;;5014444;28;20045;-80
2022/09/09 04:49:58;;;;;;;3.42;0.38;;;16.70;99.90;;;;;;5013735;28;20022;-80
2022/09/09 04:52:23;;;;;;;1.38;0.32;;;16.70;99.90;;;;;;5014310;28;20383;-80
2022/09/09 04:54:49;;;;;;;0.98;0.40;;;16.80;99.90;;;;;;5014000;28;20117;-81
2022/09/09 04:57:14;;;;;;;2.25;0.40;;;16.80;99.90;;;;;;5015816;28;20034;-81
2022/09/09 04:59:40;;;;;;;1.70;0.30;;;16.80;99.90;;;;;;5014056;28;20084;-82
2022/09/09 05:02:06;;;;;;;2.28;0.32;;;16.80;99.90;;;;;;5015104;28;20526;-81
2022/09/09 05:04:32;;;;;;;1.45;0.43;;;16.80;99.90;;;;;;5013742;28;20022;-80
2022/09/09 05:06:59;;;;;;;0.80;0.30;;;16.80;99.90;;;;;;5013784;28;20801;-81
2022/09/09 05:09:24;;;;;;;4.97;0.47;;;16.90;99.90;;;;;;5013730;28;20029;-81
2022/09/09 05:11:51;;;;;;;3.50;0.52;;;16.90;99.90;;;;;;5013617;28;20383;-81
2022/09/09 05:14:17;;;;;;;3.70;0.80;;;16.90;99.90;;;;;;5015101;28;20029;-81
2022/09/09 05:16:45;;;;;;;1.48;0.40;;;16.90;99.90;;;;;;5013173;28;20050;-82
2022/09/09 05:19:11;;;;;;;2.75;0.70;;;16.80;99.90;;;;;;5014458;28;20026;-81
2022/09/09 05:21:36;;;;;;;2.97;0.30;;;16.90;99.90;;;;;;5013487;28;20036;-81
2022/09/09 05:24:02;;;;;;;3.22;0.50;;;16.90;99.90;;;;;;5014597;28;20410;-81
2022/09/09 05:26:29;;;;;;;0.93;0.25;;;17.00;99.90;;;;;;5013789;28;20117;-81
2022/09/09 05:28:55;;;;;;;1.50;0.45;;;17.00;99.90;;;;;;5013319;28;20124;-81
2022/09/09 05:31:21;;;;;;;0.82;0.40;;;17.00;99.90;;;;;;5013601;28;20514;-81
2022/09/09 05:33:49;;;;;;;1.83;0.50;;;17.00;99.90;;;;;;5013605;28;20033;-81
2022/09/09 05:36:20;;;;;;;1.85;0.50;;;17.10;99.90;;;;;;5013273;28;20033;-81
2022/09/09 05:38:46;;;;;;;3.38;0.50;;;17.10;99.90;;;;;;5014087;28;20069;-81
2022/09/09 05:41:15;;;;;;;1.05;0.35;;;17.00;99.90;;;;;;5013543;28;20486;-81
2022/09/09 05:43:42;;;;;;;5.93;0.50;;;17.00;99.90;;;;;;5013978;28;20068;-80
2022/09/09 05:46:22;;;;;;;2.90;0.75;;;17.00;99.90;;;;;;5013449;28;20033;-81
2022/09/09 05:48:52;;;;;;;1.38;0.40;;;17.00;99.90;;;;;;5014154;28;20064;-81
2022/09/09 05:51:21;;;;;;;1.88;0.40;;;17.00;99.90;;;;;;5013506;28;20026;-81
2022/09/09 05:53:48;;;;;;;1.98;0.50;;;17.00;99.90;;;;;;5014207;28;20037;-80
2022/09/09 05:56:17;;;;;;;2.22;0.40;;;17.10;99.90;;;;;;5013389;28;20026;-81
2022/09/09 05:58:43;;;;;;;2.47;0.40;;;17.10;99.90;;;;;;5012798;28;20356;-81
2022/09/09 06:01:10;;;;;;;2.63;0.47;;;17.10;99.90;;;;;;5014189;28;20030;-81
2022/09/09 06:03:39;;;;;;;2.15;0.50;;;17.20;99.90;;;;;;5014527;28;20079;-80
2022/09/09 06:06:07;;;;;;;3.75;0.60;;;17.20;99.90;;;;;;5013809;28;20092;-80
2022/09/09 06:08:38;;;;;;;2.63;0.57;;;17.30;99.90;;;;;;5013086;28;20038;-80
2022/09/09 06:11:05;;;;;;;1.50;0.43;;;17.30;99.90;;;;;;5012796;28;20387;-81
2022/09/09 06:13:33;;;;;;;0.60;0.22;;;17.30;99.90;;;;;;5013216;28;20169;-80
2022/09/09 06:15:59;;;;;;;4.13;0.30;;;17.40;99.90;;;;;;5013429;28;20120;-81
2022/09/09 06:18:25;;;;;;;3.17;0.60;;;17.40;99.90;;;;;;5018245;28;20058;-81
2022/09/09 06:21:00;;;;;;;7.10;0.70;;;17.50;99.90;;;;;;5016098;28;20026;-81
2022/09/09 06:23:27;;;;;;;2.13;0.28;;;17.50;99.90;;;;;;5016567;28;20036;-82
2022/09/09 06:26:22;;;;;;;1.75;0.40;;;17.50;99.90;;;;;;5016294;28;20026;-82
2022/09/09 06:28:49;;;;;;;3.22;0.70;;;17.60;99.90;;;;;;5016238;28;20038;-82
2022/09/09 06:31:17;;;;;;;5.07;0.50;;;17.70;99.90;;;;;;5016725;28;20494;-82
2022/09/09 06:33:44;;;;;;;2.40;0.52;;;17.70;99.90;;;;;;5017082;28;20072;-81
2022/09/09 06:36:37;;;;;;;2.67;0.52;;;17.70;99.90;;;;;;5017510;28;20025;-82
2022/09/09 06:39:04;;;;;;;3.08;0.40;;;17.70;99.90;;;;;;5013681;28;20041;-82
2022/09/09 06:41:31;;;;;;;2.20;0.40;;;17.80;99.90;;;;;;5016638;28;20030;-82
2022/09/09 06:43:57;;;;;;;3.33;0.40;;;17.80;99.90;;;;;;5016858;28;20034;-83
2022/09/09 06:46:28;;;;;;;1.55;0.52;;;17.80;99.90;;;;;;5015908;28;20121;-82
2022/09/09 06:48:59;;;;;;;6.20;0.55;;;17.80;99.90;;;;;;5016525;28;20475;-82
2022/09/09 06:51:35;;;;;;;1.77;0.35;;;17.90;99.90;;;;;;5015876;28;20033;-81
2022/09/09 06:54:02;;;;;;;3.53;0.50;;;18.00;99.90;;;;;;5016370;28;20029;-82
2022/09/09 06:56:29;;;;;;;2.20;0.60;;;18.00;99.90;;;;;;5016875;28;20030;-82
2022/09/09 06:58:58;;;;;;;2.63;0.45;;;18.00;99.90;;;;;;5015415;28;20125;-83
2022/09/09 07:01:30;;;;;;;2.25;0.40;;;18.10;99.90;;;;;;5016231;28;20052;-81
2022/09/09 07:03:58;;;;;;;8.50;1.33;;;18.00;99.90;;;;;;5015369;28;20033;-80
2022/09/09 07:06:26;;;;;;;1.33;0.40;;;18.10;99.90;;;;;;5016852;28;20026;-84
2022/09/09 07:08:58;;;;;;;1.65;0.50;;;18.10;99.90;;;;;;5015232;28;20030;-84
2022/09/09 07:11:27;;;;;;;2.63;0.40;;;18.10;99.90;;;;;;5015793;28;20030;-84
2022/09/09 07:13:53;;;;;;;3.45;0.47;;;18.20;99.90;;;;;;5016052;28;20053;-84
2022/09/09 07:16:20;;;;;;;3.70;0.55;;;18.20;99.90;;;;;;5016680;28;20057;-82
2022/09/09 07:18:46;;;;;;;4.07;0.90;;;18.20;99.90;;;;;;5015091;28;20030;-81
2022/09/09 07:21:13;;;;;;;2.00;0.35;;;18.30;99.90;;;;;;5015687;28;20026;-82
2022/09/09 07:23:39;;;;;;;1.92;0.63;;;18.30;99.90;;;;;;5015480;28;20030;-81
2022/09/09 07:26:10;;;;;;;4.40;0.90;;;18.30;99.90;;;;;;5015638;28;20344;-81
2022/09/09 07:28:36;;;;;;;2.83;0.50;;;18.30;99.90;;;;;;5015937;28;20030;-82
2022/09/09 07:31:03;;;;;;;2.35;0.55;;;18.20;99.90;;;;;;5015693;28;20030;-82
2022/09/09 07:33:30;;;;;;;1.25;0.50;;;18.20;99.90;;;;;;5016187;28;20154;-82
2022/09/09 07:36:15;;;;;;;2.22;0.52;;;18.10;99.90;;;;;;5014680;28;20061;-82
2022/09/09 07:38:51;;;;;;;1.15;0.32;;;18.10;99.90;;;;;;5016170;28;20084;-82
2022/09/09 07:41:19;;;;;;;3.15;0.60;;;18.10;99.90;;;;;;5016139;28;20459;-82
2022/09/09 07:43:47;;;;;;;5.63;0.57;;;18.10;99.90;;;;;;5016051;28;20030;-81
2022/09/09 07:46:14;;;;;;;3.72;0.70;;;18.20;99.90;;;;;;5015990;28;20038;-83
2022/09/09 07:48:51;;;;;;;3.45;0.70;;;18.10;99.90;;;;;;5015124;28;20034;-82
2022/09/09 07:51:19;;;;;;;2.15;0.47;;;18.20;99.90;;;;;;5015730;28;20033;-83
2022/09/09 07:53:46;;;;;;;3.28;0.47;;;18.20;99.90;;;;;;5015018;28;20026;-83
2022/09/09 07:56:17;;;;;;;2.25;0.50;;;18.30;99.90;;;;;;5014949;28;20026;-82
2022/09/09 07:58:45;;;;;;;3.33;0.70;;;18.40;99.90;;;;;;5015071;28;20030;-82
2022/09/09 08:01:17;;;;;;;4.10;0.77;;;18.50;99.90;;;;;;5015053;28;20517;-83
2022/09/09 08:03:44;;;;;;;1.33;0.50;;;18.70;99.90;;;;;;5015099;28;20033;-83
2022/09/09 08:06:11;;;;;;;1.48;0.40;;;18.80;99.90;;;;;;5014897;28;20068;-84
2022/09/09 08:08:38;;;;;;;3.13;0.60;;;18.90;99.90;;;;;;5014693;28;20065;-84
2022/09/09 08:11:15;;;;;;;2.15;0.60;;;19.00;99.90;;;;;;5015506;28;20050;-84
2022/09/09 08:13:42;;;;;;;4.57;0.50;;;19.10;99.90;;;;;;5014759;28;20080;-84
2022/09/09 08:16:22;;;;;;;2.08;0.50;;;19.20;99.90;;;;;;5014364;28;20128;-83
2022/09/09 08:18:52;;;;;;;2.67;0.50;;;19.20;99.90;;;;;;5015550;28;20038;-84
2022/09/09 08:21:27;;;;;;;1.17;0.50;;;19.10;99.90;;;;;;5015127;28;20108;-90
2022/09/09 08:23:54;;;;;;;6.68;0.80;;;19.00;99.90;;;;;;5011772;28;20022;-84
2022/09/09 08:26:26;;;;;;;3.88;0.45;;;19.00;99.90;;;;;;4995259;28;20092;-85
2022/09/09 08:28:53;;;;;;;;;;;19.00;99.90;;;;;;5012396;28;20060;-81
2022/09/09 08:31:30;;;;;;;2.83;0.57;;;19.00;99.90;;;;;;5015412;28;19913;-85
2022/09/09 08:33:59;;;;;;;2.28;0.50;;;18.90;99.90;;;;;;5013540;28;20028;-84
2022/09/09 08:36:27;;;;;;;1.20;0.52;;;18.80;99.90;;;;;;5015202;28;20033;-84
2022/09/09 08:38:56;;;;;;;4.45;0.65;;;18.90;99.90;;;;;;5013027;28;20061;-86
2022/09/09 08:41:40;;;;;;;1.17;0.40;;;19.10;99.90;;;;;;5012434;28;20014;-84
2022/09/09 08:44:36;;;;;;;3.65;0.50;;;19.20;99.90;;;;;;5008117;28;20069;-85
2022/09/09 08:47:20;;;;;;;1.83;0.50;;;19.30;99.90;;;;;;5012673;28;20460;-85
2022/09/09 08:49:55;;;;;;;7.30;0.70;;;19.40;99.90;;;;;;5011185;28;20022;-85
2022/09/09 08:52:38;;;;;;;5.28;0.70;;;19.30;99.90;;;;;;5013806;28;20053;-83
2022/09/09 08:55:22;;;;;;;4.75;0.70;;;19.40;99.90;;;;;;5013957;28;20030;-85
2022/09/09 08:57:51;;;;;;;1.67;1.05;;;19.40;99.90;;;;;;5012414;28;20550;-88
2022/09/09 09:00:17;;;;;;;3.05;1.00;;;19.40;99.90;;;;;;5011370;28;20184;-89
2022/09/09 09:03:22;;;;;;;3.80;0.70;;;19.40;99.90;;;;;;5014239;28;20061;-87
2022/09/09 09:05:48;;;;;;;3.90;0.60;;;19.20;99.90;;;;;;5007993;28;20053;-84
2022/09/09 09:08:45;;;;;;;2.92;0.60;;;19.10;99.90;;;;;;5013342;28;20479;-83
2022/09/09 09:11:11;;;;;;;3.47;0.50;;;19.10;99.90;;;;;;4990232;28;20128;-80
2022/09/09 09:13:47;;;;;;;4.78;0.88;;;19.00;99.90;;;;;;5013353;28;20029;-83
2022/09/09 09:16:26;;;;;;;4.25;0.60;;;19.00;99.90;;;;;;5013398;28;20129;-83
2022/09/09 09:18:52;;;;;;;6.63;0.70;;;19.00;99.90;;;;;;5009780;28;20021;-84
2022/09/09 09:21:33;;;;;;;2.85;0.60;;;19.00;99.90;;;;;;5012499;28;20360;-83
2022/09/09 09:24:00;;;;;;;4.70;0.63;;;19.00;99.90;;;;;;5012218;28;20072;-83
2022/09/09 09:26:32;;;;;;;2.10;0.52;;;19.00;99.90;;;;;;5012970;28;20062;-86
2022/09/09 09:28:59;;;;;;;;;;;19.20;99.90;;;;;;5012596;28;20034;-88
2022/09/09 09:31:26;;;;;;;3.92;0.52;;;19.20;99.90;;;;;;5012147;28;19912;-85
2022/09/09 09:33:54;;;;;;;2.65;0.60;;;19.40;99.90;;;;;;5012583;28;20029;-85
2022/09/09 09:36:23;;;;;;;4.97;0.43;;;19.60;99.90;;;;;;5012897;28;20380;-86
2022/09/09 09:38:59;;;;;;;3.90;0.60;;;19.70;99.90;;;;;;5010661;28;20026;-85
2022/09/09 09:41:45;;;;;;;2.42;0.50;;;19.90;99.90;;;;;;5013459;28;20455;-84
2022/09/09 09:44:40;;;;;;;4.28;0.50;;;20.00;99.90;;;;;;5012694;28;20033;-83
2022/09/09 09:47:14;;;;;;;2.97;0.40;;;20.00;99.90;;;;;;5000082;28;20128;-82
2022/09/09 09:49:50;;;;;;;2.53;0.50;;;20.00;99.90;;;;;;5008904;28;20034;-81
2022/09/09 09:52:20;;;;;;;2.15;0.40;;;20.10;99.90;;;;;;5001879;28;20030;-91
2022/09/09 09:54:46;;;;;;;5.05;0.47;;;20.10;99.90;;;;;;5018850;28;20018;-92
2022/09/09 09:57:16;;;;;;;1.02;0.30;;;20.10;99.90;;;;;;5019014;28;20034;-95
2022/09/09 09:59:42;;;;;;;1.65;0.30;;;20.10;99.90;;;;;;5018481;28;20079;-86
2022/09/09 10:02:18;;;;;;;2.13;0.70;;;20.00;99.90;;;;;;5008924;28;20024;-81
2022/09/09 10:04:45;;;;;;;4.35;1.30;;;19.90;99.90;;;;;;5017822;28;20443;-90
2022/09/09 10:07:19;;;;;;;6.75;0.65;;;20.00;99.90;;;;;;5010825;28;20052;-91
2022/09/09 10:09:53;;;;;;;1.92;0.30;;;20.10;99.90;;;;;;5000606;28;20364;-94
2022/09/09 10:12:42;;;;;;;3.35;0.60;;;20.10;99.90;;;;;;5012529;28;20022;-86
2022/09/09 10:15:22;;;;;;;2.30;0.30;;;20.10;99.90;;;;;;5007642;28;20064;-85
2022/09/09 10:17:57;;;;;;;1.87;0.50;;;20.20;99.90;;;;;;5000162;28;20034;-88
2022/09/09 10:21:15;;;;;;;2.38;0.40;;;20.40;99.90;;;;;;5012333;28;20267;-91
2022/09/09 10:24:12;;;;;;;1.10;0.50;;;20.40;99.90;;;;;;4986451;28;20368;-96
2022/09/09 10:26:42;;;;;;;2.58;0.40;;;20.40;99.90;;;;;;5005395;28;20033;-80
2022/09/09 10:29:47;;;;;;;3.90;0.70;;;20.50;99.90;;;;;;5010702;28;20056;-87
2022/09/09 10:32:34;;;;;;;1.50;0.47;;;20.60;99.90;;;;;;5002669;28;20030;-89
2022/09/09 10:35:22;;;;;;;4.50;0.60;;;20.90;99.90;;;;;;5006425;28;20547;-92
2022/09/09 10:38:00;;;;;;;2.38;0.50;;;21.10;99.90;;;;;;5012729;28;20121;-90
2022/09/09 10:40:44;;;;;;;3.38;0.63;;;21.20;99.90;;;;;;5014902;28;20030;-88
2022/09/09 10:43:35;;;;;;;2.35;0.40;;;21.20;99.90;;;;;;5011527;28;20252;-87
2022/09/09 10:46:14;;;;;;;2.60;0.70;;;21.20;99.90;;;;;;5014708;28;20118;-87
2022/09/09 10:48:59;;;;;;;3.10;0.50;;;21.20;99.90;;;;;;5012568;28;20042;-87
2022/09/09 10:51:40;;;;;;;5.07;0.40;;;21.10;99.90;;;;;;5013644;28;20439;-81
2022/09/09 10:54:11;;;;;;;4.13;1.20;;;21.10;99.90;;;;;;5013965;28;20055;-96
2022/09/09 10:56:39;;;;;;;2.47;0.25;;;21.20;99.90;;;;;;5004539;28;20054;-85
2022/09/09 10:59:18;;;;;;;2.45;0.73;;;21.20;99.70;;;;;;5005442;28;20030;-85
2022/09/09 11:01:47;;;;;;;3.20;0.50;;;21.00;99.50;;;;;;5012855;28;20105;-85
2022/09/09 11:04:22;;;;;;;2.97;0.40;;;20.80;99.20;;;;;;5008031;28;20034;-83
2022/09/09 11:06:52;;;;;;;0.82;0.60;;;20.70;99.40;;;;;;5016268;28;20030;-83
2022/09/09 11:09:22;;;;;;;4.88;1.17;;;20.70;99.90;;;;;;5015775;28;20038;-81
2022/09/09 11:11:56;;;;;;;2.13;0.50;;;20.80;99.90;;;;;;4998954;28;20034;-81
2022/09/09 11:14:30;;;;;;;3.85;0.63;;;20.90;99.90;;;;;;5010322;28;20031;-87
2022/09/09 11:17:03;;;;;;;1.90;0.40;;;21.10;99.90;;;;;;5004803;28;20049;-85
2022/09/09 11:19:39;;;;;;;1.88;0.55;;;21.30;98.80;;;;;;5011003;28;20035;-84
2022/09/09 11:22:20;;;;;;;1.42;0.32;;;21.30;98.40;;;;;;5012520;28;20085;-90
2022/09/09 11:24:59;;;;;;;5.93;0.60;;;21.20;98.40;;;;;;5004177;28;20125;-83
2022/09/09 11:27:28;;;;;;;2.53;0.40;;;21.10;98.50;;;;;;5001921;28;20042;-83
2022/09/09 11:30:02;;;;;;;2.00;0.40;;;21.20;97.70;;;;;;5012589;28;20415;-85
2022/09/09 11:32:50;;;;;;;3.03;1.27;;;21.40;97.50;;;;;;5002581;28;20026;-86
2022/09/09 11:36:11;;;;;;;4.00;0.57;;;21.50;97.00;;;;;;5015790;28;20468;-74
2022/09/09 11:38:46;;;;;;;8.85;3.50;;;21.70;96.50;;;;;;4972936;28;20033;-74
2022/09/09 11:41:14;;;;;;;2.35;0.70;;;21.80;95.80;;;;;;5002152;28;20030;-90
2022/09/09 11:43:44;;;;;;;2.90;0.50;;;21.90;94.80;;;;;;5012152;28;20116;-89
2022/09/09 11:46:12;;;;;;;2.35;0.40;;;22.10;94.90;;;;;;5014557;28;20327;-87
2022/09/09 11:48:46;;;;;;;2.03;0.43;;;22.10;94.80;;;;;;5009227;28;20120;-92
2022/09/09 11:51:21;;;;;;;3.90;0.45;;;22.10;95.00;;;;;;5014324;28;20083;-91
2022/09/09 11:53:53;;;;;;;2.50;0.43;;;22.10;96.30;;;;;;5014576;28;20192;-96
2022/09/09 11:56:43;;;;;;;2.33;0.60;;;22.20;96.30;;;;;;5011423;28;20153;-91
2022/09/09 11:59:32;;;;;;;2.30;0.50;;;22.30;97.00;;;;;;5005076;28;20045;-80
2022/09/09 12:02:23;;;;;;;2.42;0.60;;;22.30;96.90;;;;;;5012164;28;20030;-81
2022/09/09 12:05:09;;;;;;;10.33;1.00;;;22.60;97.00;;;;;;5006953;28;20034;-82
2022/09/09 12:07:42;;;;;;;3.33;0.63;;;22.70;95.50;;;;;;5013655;28;20038;-80
2022/09/09 12:10:08;;;;;;;5.22;1.30;;;22.60;95.70;;;;;;4997147;28;20129;-79
2022/09/09 12:12:38;;;;;;;3.58;1.10;;;22.30;96.40;;;;;;5008429;28;20101;-85
2022/09/09 12:15:27;;;;;;;1.80;0.50;;;22.00;96.30;;;;;;5004780;28;20030;-83
2022/09/09 12:18:00;;;;;;;3.05;0.50;;;21.80;96.60;;;;;;4997910;28;20039;-83
2022/09/09 12:20:36;;;;;;;3.28;0.57;;;21.70;97.00;;;;;;5015006;28;20029;-82
2022/09/09 12:23:53;;;;;;;2.30;0.52;;;21.60;97.50;;;;;;5012737;28;20427;-79
2022/09/09 12:26:27;;;;;;;2.30;0.40;;;21.60;97.50;;;;;;4952203;29;20094;-83
2022/09/09 12:29:12;;;;;;;3.33;1.05;;;21.60;96.60;;;;;;4998161;28;20134;-85
2022/09/09 12:31:57;;;;;;;2.42;0.93;;;21.50;96.80;;;;;;5011873;28;20029;-83
2022/09/09 12:34:53;;;;;;;3.88;0.95;;;21.60;97.00;;;;;;5010189;28;20048;-83
2022/09/09 12:37:27;;;;;;;2.20;0.65;;;21.60;96.80;;;;;;5010248;28;20033;-84
2022/09/09 12:40:02;;;;;;;4.68;1.05;;;21.50;97.70;;;;;;5010158;28;20072;-84
2022/09/09 12:42:28;;;;;;;6.30;1.38;;;21.40;98.10;;;;;;5008589;28;20384;-84
2022/09/09 12:44:56;;;;;;;3.03;0.90;;;21.40;98.80;;;;;;5010261;28;20033;-83
2022/09/09 12:47:35;;;;;;;3.60;0.80;;;21.30;99.40;;;;;;5011408;28;20403;-83
2022/09/09 12:50:02;;;;;;;2.13;0.77;;;21.10;99.30;;;;;;5012326;28;20029;-85
2022/09/09 12:52:33;;;;;;;2.45;0.40;;;20.90;99.90;;;;;;5007750;28;20468;-86
2022/09/09 12:55:00;;;;;;;;;;;20.70;99.90;;;;;;5007370;28;20019;-84
2022/09/09 12:57:35;;;;;;;3.97;0.50;;;20.70;99.90;;;;;;5009119;28;20414;-85
2022/09/09 13:00:20;;;;;;;2.20;0.50;;;20.70;99.90;;;;;;5009403;28;20125;-83
2022/09/09 13:03:20;;;;;;;4.80;0.57;;;20.70;99.90;;;;;;5007216;28;20164;-82
2022/09/09 13:05:46;;;;;;;2.15;0.50;;;20.60;99.90;;;;;;5010110;28;20375;-82
2022/09/09 13:08:13;;;;;;;4.95;0.50;;;20.60;99.90;;;;;;5012430;28;20034;-82
2022/09/09 13:10:56;;;;;;;2.72;0.60;;;20.60;99.90;;;;;;5006878;28;20031;-82
2022/09/09 13:13:39;;;;;;;2.65;0.43;;;20.60;99.90;;;;;;5006464;28;20033;-83
2022/09/09 13:16:18;;;;;;;3.55;0.43;;;20.60;99.90;;;;;;5004774;28;20051;-79
2022/09/09 13:18:44;;;;;;;1.30;0.30;;;20.70;99.90;;;;;;5009497;28;20038;-81
2022/09/09 13:21:09;;;;;;;2.60;0.47;;;20.90;99.90;;;;;;5011954;28;20372;-79